Terminal Aerodrome Forecast
Issued by NWS Atlanta, GA

Home | Current Version | Previous Version | Text Only | Print | Product List | Glossary On
Versions: 1 2 3 4 5 6 7 8 9 10 11 12 13 14
541
FTUS42 KFFC 031727
TAFCSG
TAF
KCSG 031727Z 0318/0418 06006KT P6SM BKN150
     FM040000 07005KT P6SM VCSH BKN100
     FM040600 08008KT P6SM -RA BKN060
     FM041200 09010KT 6SM -RA BR OVC040
     FM041500 10012KT 5SM -RA BR OVC025=

USA.gov is the U.S. government's official web portal to all federal, state and local government web resources and services.